EST,Max TemperatureF,Mean TemperatureF,Min TemperatureF,Max Dew PointF,MeanDew PointF,Min DewpointF,Max Humidity, Mean Humidity, Min Humidity, Max Sea Level PressureIn, Mean Sea Level PressureIn, Min Sea Level PressureIn, Max VisibilityMiles, Mean VisibilityMiles, Min VisibilityMiles, Max Wind SpeedMPH, Mean Wind SpeedMPH, Max Gust SpeedMPH,PrecipitationIn, CloudCover, Events, WindDirDegrees
2012-12-1,25,15,6,20,11,2,86,77,73,30.69,30.57,30.43,10,7,1,6,1,,0.02,8,Snow,346
2012-12-2,50,37,24,43,35,19,100,88,63,30.46,30.08,29.90,10,6,1,10,3,,0.37,7,Rain,354
2012-12-3,48,40,32,44,36,29,96,85,75,30.30,30.10,29.92,10,8,1,16,4,29,0.02,8,Rain,288
2012-12-4,41,36,30,34,31,28,96,89,76,30.30,30.11,29.87,10,7,0,5,0,,0.00,8,Fog,351
2012-12-5,44,35,26,41,30,16,100,81,56,30.13,29.90,29.78,10,6,1,15,3,29,0.40,8,Rain-Snow,306
2012-12-6,32,23,14,18,14,10,88,67,50,30.35,30.25,30.10,10,9,4,9,4,18,0.00,4,Snow,304
2012-12-7,37,28,18,25,20,14,85,74,46,30.25,30.12,30.04,10,10,10,4,0,,0.00,3,,320
2012-12-8,36,30,24,32,28,21,91,84,79,30.04,29.92,29.80,10,10,10,0,0,,0.01,8,Rain,-1
2012-12-9,42,34,27,37,27,21,93,73,53,30.33,30.15,29.88,10,10,9,14,4,22,0.00,6,Rain,308
2012-12-10,37,34,30,36,31,22,93,89,61,30.14,29.75,29.45,10,6,0,13,6,24,0.68,8,Fog-Rain-Snow,188
2012-12-11,37,30,24,34,24,16,96,76,64,30.15,29.83,29.54,10,10,7,10,3,20,0.02,7,Rain,312
2012-12-12,35,26,17,20,17,14,88,70,50,30.39,30.31,30.17,10,10,6,8,3,,0.00,5,Snow,320
2012-12-13,37,27,17,24,20,13,93,78,47,30.45,30.37,30.26,10,10,5,5,1,,0.00,4,,200
2012-12-14,39,26,12,28,22,9,88,71,49,30.22,30.11,30.02,10,10,10,10,3,21,0.00,6,,295
2012-12-15,32,19,6,21,8,1,84,62,33,30.38,30.31,30.13,10,10,10,9,5,,0.00,1,,348
2012-12-16,24,16,8,19,14,4,93,81,65,30.35,30.18,30.09,10,4,0,7,2,,0.41,7,Fog-Snow,337
2012-12-17,30,26,21,27,22,17,93,85,79,30.15,30.03,29.91,10,5,0,8,4,,0.16,8,Fog-Snow,333
2012-12-18,35,32,30,34,31,27,100,91,87,29.92,29.61,29.45,10,4,1,9,1,,0.46,8,Rain-Snow,337
2012-12-19,37,35,33,32,32,30,93,89,81,30.03,29.64,29.46,10,6,1,7,3,,0.14,8,Rain-Snow,332
2012-12-20,34,32,30,30,27,24,89,79,67,30.21,30.12,30.00,10,10,10,15,2,21,0.00,8,,122
2012-12-21,46,38,30,41,32,26,93,83,75,30.00,29.46,29.00,10,5,1,26,10,40,0.92,8,Rain-Snow,123
2012-12-22,37,27,17,28,18,10,80,72,61,29.57,29.36,29.09,10,5,1,12,5,20,0.01,8,Snow,274
2012-12-23,27,22,16,23,14,7,88,73,54,29.77,29.67,29.52,10,6,0,12,7,24,0.03,8,Fog-Snow,304
2012-12-24,26,18,10,16,11,7,88,68,55,30.07,29.97,29.81,10,10,5,12,6,24,0.00,5,Snow,289
2012-12-25,27,15,1,14,7,-2,84,76,56,30.32,30.15,30.06,10,10,10,8,2,,0.00,3,,357
2012-12-26,26,10,-6,14,5,-11,81,72,51,30.40,30.30,30.09,10,10,9,0,0,,0.00,1,,-1
2012-12-27,30,26,23,27,22,14,93,83,63,30.06,29.71,29.55,10,2,0,15,7,22,0.55,8,Fog-Snow,24
2012-12-28,25,20,14,18,16,11,88,78,72,30.02,29.88,29.69,10,6,1,12,6,23,0.00,7,Snow,299
2012-12-29,23,10,-2,20,14,-7,93,87,76,30.04,29.75,29.48,10,4,0,7,1,,0.11,6,Fog-Snow,337
2012-12-30,23,16,8,19,7,0,93,74,65,29.93,29.70,29.44,10,5,1,16,7,30,0.01,8,Snow,297
2012-12-31,28,19,10,22,13,1,85,75,67,29.98,29.84,29.64,10,7,1,12,5,22,0.00,8,Snow,288